Time;durP1;ratioP1;P1;durP2;ratioP2;P2;SDS_P1;SDS_P2;PMS_P1;PMS_P2;Temp;Humidity;BMP_temperature;BMP_pressure;BME280_temperature;BME280_humidity;BME280_pressure;Samples;Min_cycle;Max_cycle;Signal;HPM_P1;HPM_P2
2021/12/26 00:01:04;;;;;;;6.78;6.18;;;18.00;64.40;;;;;;4996938;28;20395;-27
2021/12/26 00:03:31;;;;;;;7.00;6.40;;;18.00;64.50;;;;;;4997241;28;20026;-27
2021/12/26 00:06:00;;;;;;;6.18;5.75;;;18.00;64.50;;;;;;4997251;28;20023;-27
2021/12/26 00:08:25;;;;;;;6.18;5.65;;;18.00;64.40;;;;;;4996993;28;20058;-27
2021/12/26 00:10:51;;;;;;;6.35;5.85;;;18.00;64.40;;;;;;4997197;28;20023;-27
2021/12/26 00:13:17;;;;;;;6.35;5.85;;;18.00;64.40;;;;;;4997178;28;20030;-27
2021/12/26 00:15:43;;;;;;;5.95;5.53;;;18.00;64.40;;;;;;4997189;28;20090;-27
2021/12/26 00:18:10;;;;;;;5.35;5.05;;;17.90;64.40;;;;;;4997090;28;20032;-27
2021/12/26 00:20:36;;;;;;;5.78;5.38;;;18.00;64.40;;;;;;4997342;28;20023;-27
2021/12/26 00:23:02;;;;;;;5.78;5.30;;;18.00;64.40;;;;;;4997114;28;20027;-27
2021/12/26 00:25:27;;;;;;;5.60;5.20;;;17.90;64.50;;;;;;4997068;28;20030;-27
2021/12/26 00:27:53;;;;;;;5.32;4.93;;;17.90;64.50;;;;;;4996770;28;20030;-27
2021/12/26 00:30:19;;;;;;;5.35;5.05;;;18.00;64.40;;;;;;4997067;28;20029;-27
2021/12/26 00:32:45;;;;;;;5.32;4.93;;;17.90;64.50;;;;;;4996741;28;20026;-27
2021/12/26 00:35:11;;;;;;;5.53;5.13;;;17.90;64.50;;;;;;4997001;28;20038;-27
2021/12/26 00:37:37;;;;;;;5.03;4.68;;;17.90;64.50;;;;;;4997032;28;20058;-27
2021/12/26 00:40:04;;;;;;;5.05;4.75;;;17.90;64.50;;;;;;4996974;28;20733;-27
2021/12/26 00:42:29;;;;;;;5.35;5.05;;;17.90;64.60;;;;;;4996652;28;20031;-27
2021/12/26 00:44:55;;;;;;;5.82;5.40;;;17.90;64.60;;;;;;4999981;28;20502;-27
2021/12/26 00:47:20;;;;;;;4.82;4.53;;;17.90;64.60;;;;;;5000562;28;20030;-27
2021/12/26 00:49:46;;;;;;;5.93;5.53;;;17.90;64.70;;;;;;5000566;28;20026;-27
2021/12/26 00:52:11;;;;;;;5.05;4.75;;;17.90;64.60;;;;;;5000509;28;20058;-27
2021/12/26 00:54:37;;;;;;;4.90;4.60;;;17.90;64.60;;;;;;5000414;28;20030;-27
2021/12/26 00:57:03;;;;;;;4.72;4.43;;;17.90;64.50;;;;;;5000021;28;20446;-27
2021/12/26 00:59:29;;;;;;;5.07;4.78;;;17.90;64.60;;;;;;5000518;28;20022;-27
2021/12/26 01:01:55;;;;;;;4.80;4.50;;;17.90;64.50;;;;;;5000250;28;20068;-27
2021/12/26 01:04:21;;;;;;;5.20;4.90;;;17.90;64.60;;;;;;4999662;28;20500;-27
2021/12/26 01:06:46;;;;;;;5.22;4.82;;;17.90;64.60;;;;;;4999816;28;20046;-27
2021/12/26 01:09:16;;;;;;;4.72;4.43;;;17.80;64.70;;;;;;5000130;28;20062;-27
2021/12/26 01:11:48;;;;;;;4.90;4.60;;;17.90;64.70;;;;;;4999638;28;20120;-27
2021/12/26 01:14:15;;;;;;;4.38;4.13;;;17.90;64.70;;;;;;4999870;28;20372;-27
2021/12/26 01:16:40;;;;;;;4.75;4.45;;;17.80;64.60;;;;;;5000139;28;20061;-27
2021/12/26 01:19:12;;;;;;;4.25;3.95;;;17.90;64.60;;;;;;4999963;28;20395;-27
2021/12/26 01:21:38;;;;;;;4.95;4.60;;;17.90;64.60;;;;;;5000007;28;20027;-27
2021/12/26 01:24:07;;;;;;;4.47;4.28;;;17.90;64.60;;;;;;4999931;28;20022;-27
2021/12/26 01:26:33;;;;;;;4.30;4.10;;;17.90;64.60;;;;;;4999491;28;20026;-27
2021/12/26 01:28:58;;;;;;;4.53;4.22;;;17.90;64.70;;;;;;4999812;28;20023;-27
2021/12/26 01:31:25;;;;;;;4.25;4.03;;;17.90;64.70;;;;;;4999948;28;20109;-27
2021/12/26 01:33:53;;;;;;;4.45;4.20;;;17.90;64.70;;;;;;4999564;28;20053;-27
2021/12/26 01:36:19;;;;;;;4.10;3.90;;;17.80;64.70;;;;;;4999082;28;20022;-27
2021/12/26 01:38:44;;;;;;;4.10;3.80;;;17.80;64.70;;;;;;4999656;28;20076;-27
2021/12/26 01:41:10;;;;;;;4.38;4.07;;;17.80;64.70;;;;;;4999338;28;20034;-27
2021/12/26 01:43:37;;;;;;;4.22;4.00;;;17.80;64.80;;;;;;4999553;28;20026;-27
2021/12/26 01:46:03;;;;;;;4.05;3.75;;;17.80;64.80;;;;;;4999508;28;20032;-27
2021/12/26 01:48:29;;;;;;;5.05;4.65;;;17.80;64.90;;;;;;4999493;28;20101;-27
2021/12/26 01:50:55;;;;;;;4.70;4.40;;;17.80;64.90;;;;;;4999375;28;20030;-27
2021/12/26 01:53:23;;;;;;;4.00;3.80;;;17.80;64.90;;;;;;4998885;28;20032;-27
2021/12/26 01:55:49;;;;;;;4.30;4.10;;;17.80;64.90;;;;;;4997855;28;20026;-27
2021/12/26 01:58:25;;;;;;;3.90;3.70;;;17.80;64.70;;;;;;4999120;28;20026;-27
2021/12/26 02:00:56;;;;;;;4.13;3.90;;;17.80;64.80;;;;;;4999300;28;20018;-27
2021/12/26 02:03:22;;;;;;;4.15;3.95;;;17.80;64.80;;;;;;4999122;28;20471;-27
2021/12/26 02:05:47;;;;;;;3.88;3.67;;;17.80;64.80;;;;;;4998949;28;20030;-27
2021/12/26 02:08:13;;;;;;;4.40;4.10;;;17.80;64.90;;;;;;4998487;28;20506;-27
2021/12/26 02:10:39;;;;;;;3.60;3.40;;;17.70;65.20;;;;;;4999022;28;20035;-27
2021/12/26 02:13:04;;;;;;;3.47;3.28;;;17.70;65.20;;;;;;4998796;28;20033;-27
2021/12/26 02:15:30;;;;;;;3.45;3.25;;;17.70;65.40;;;;;;4999181;28;20101;-27
2021/12/26 02:17:56;;;;;;;3.72;3.42;;;17.70;65.30;;;;;;4998881;28;20022;-27
2021/12/26 02:20:29;;;;;;;3.83;3.63;;;17.70;65.30;;;;;;4999055;28;20031;-27
2021/12/26 02:23:01;;;;;;;3.60;3.40;;;17.70;65.30;;;;;;4998161;28;20081;-27
2021/12/26 02:28:16;;;;;;;3.75;3.55;;;17.80;65.10;;;;;;4988381;28;20030;-27
2021/12/26 02:30:41;;;;;;;3.60;3.40;;;17.80;65.20;;;;;;4998729;28;20046;-27
2021/12/26 02:33:11;;;;;;;3.08;2.90;;;17.70;65.30;;;;;;4998760;28;20076;-27
2021/12/26 02:35:37;;;;;;;3.58;3.38;;;17.70;65.30;;;;;;4998779;28;20106;-27
2021/12/26 02:38:02;;;;;;;3.60;3.40;;;17.70;65.30;;;;;;4998515;28;20456;-27
2021/12/26 02:40:28;;;;;;;3.75;3.38;;;17.70;65.30;;;;;;4998030;28;20069;-27
2021/12/26 02:42:54;;;;;;;3.88;3.67;;;17.70;65.40;;;;;;4998246;28;20026;-27
2021/12/26 02:45:19;;;;;;;3.42;3.22;;;17.70;65.40;;;;;;4998488;28;20033;-27
2021/12/26 02:47:46;;;;;;;3.17;2.97;;;17.70;65.30;;;;;;4998360;28;20058;-27
2021/12/26 02:50:18;;;;;;;3.35;3.15;;;17.70;65.40;;;;;;4998389;28;20065;-27
2021/12/26 02:52:44;;;;;;;3.33;3.13;;;17.70;65.50;;;;;;4998067;28;20064;-27
2021/12/26 02:55:10;;;;;;;3.22;3.03;;;17.70;65.40;;;;;;4998288;28;20080;-27
2021/12/26 02:57:35;;;;;;;3.10;2.90;;;17.60;65.40;;;;;;4997850;28;20027;-27
2021/12/26 03:00:07;;;;;;;3.40;3.13;;;17.70;65.50;;;;;;4998157;28;20030;-27
2021/12/26 03:02:33;;;;;;;3.03;2.83;;;17.70;65.40;;;;;;4997878;28;20394;-27
2021/12/26 03:04:58;;;;;;;2.60;2.50;;;17.70;65.40;;;;;;4997800;28;20022;-27
2021/12/26 03:07:24;;;;;;;3.58;3.38;;;17.60;65.50;;;;;;4996170;28;20606;-27
2021/12/26 03:09:58;;;;;;;3.05;2.85;;;17.70;65.60;;;;;;4998214;28;20486;-27
2021/12/26 03:12:23;;;;;;;2.92;2.72;;;17.60;65.50;;;;;;4997066;28;20101;-27
2021/12/26 03:14:49;;;;;;;2.92;2.72;;;17.60;65.50;;;;;;4997863;28;20066;-27
2021/12/26 03:17:15;;;;;;;2.58;2.47;;;17.60;65.50;;;;;;4997730;28;20064;-27
2021/12/26 03:19:40;;;;;;;2.78;2.67;;;17.60;65.40;;;;;;4997914;28;20036;-27
2021/12/26 03:22:06;;;;;;;2.60;2.50;;;17.70;65.40;;;;;;4997737;28;20529;-27
2021/12/26 03:24:32;;;;;;;2.47;2.38;;;17.60;65.30;;;;;;4997673;28;20037;-27
2021/12/26 03:27:02;;;;;;;2.70;2.60;;;17.60;65.50;;;;;;4997494;28;20035;-28
2021/12/26 03:29:27;;;;;;;2.47;2.38;;;17.60;65.40;;;;;;4997873;28;20030;-27
2021/12/26 03:31:53;;;;;;;2.67;2.58;;;17.70;65.40;;;;;;4997600;28;20397;-27
2021/12/26 03:34:19;;;;;;;2.70;2.50;;;17.70;65.60;;;;;;4997513;28;20030;-27
2021/12/26 03:36:46;;;;;;;2.75;2.55;;;17.60;66.40;;;;;;4997485;28;20030;-27
2021/12/26 03:39:11;;;;;;;3.13;2.92;;;17.60;65.60;;;;;;4997617;28;20053;-27
2021/12/26 03:41:37;;;;;;;2.55;2.45;;;17.60;65.60;;;;;;4997224;28;20438;-27
2021/12/26 03:44:03;;;;;;;2.17;2.08;;;17.60;65.60;;;;;;4997050;28;20038;-27
2021/12/26 03:46:28;;;;;;;2.45;2.35;;;17.60;65.50;;;;;;4997611;28;20018;-27
2021/12/26 03:48:54;;;;;;;2.10;2.00;;;17.60;65.60;;;;;;4997433;28;20018;-27
2021/12/26 03:51:20;;;;;;;2.40;2.30;;;17.60;65.50;;;;;;4997307;28;20023;-27
2021/12/26 03:53:46;;;;;;;2.60;2.40;;;17.60;65.50;;;;;;4997413;28;20031;-27
2021/12/26 03:56:11;;;;;;;2.40;2.30;;;17.70;65.40;;;;;;4997009;28;20103;-27
2021/12/26 03:58:38;;;;;;;2.30;2.20;;;17.60;65.40;;;;;;4997261;28;20120;-27
2021/12/26 04:01:03;;;;;;;2.15;2.05;;;17.60;65.50;;;;;;4997451;28;20037;-27
2021/12/26 04:03:29;;;;;;;2.15;2.05;;;17.60;65.40;;;;;;4997192;28;20105;-27
2021/12/26 04:05:55;;;;;;;2.20;2.10;;;17.60;65.50;;;;;;4997030;28;20813;-27
2021/12/26 04:08:20;;;;;;;2.15;1.90;;;17.60;65.50;;;;;;4996971;28;20133;-27
2021/12/26 04:10:46;;;;;;;2.28;2.17;;;17.60;65.60;;;;;;4996982;28;20549;-27
2021/12/26 04:13:12;;;;;;;2.00;1.90;;;17.60;65.50;;;;;;4997014;28;20034;-27
2021/12/26 04:15:37;;;;;;;2.25;2.08;;;17.60;65.70;;;;;;4996904;28;20034;-27
2021/12/26 04:18:04;;;;;;;1.90;1.80;;;17.60;65.70;;;;;;4997331;28;20130;-27
2021/12/26 04:20:29;;;;;;;1.88;1.77;;;17.60;65.60;;;;;;5001319;28;20383;-27
2021/12/26 04:22:55;;;;;;;2.13;2.03;;;17.60;65.50;;;;;;5001100;28;20049;-27
2021/12/26 04:25:21;;;;;;;1.95;1.85;;;17.60;65.50;;;;;;5001015;28;20018;-27
2021/12/26 04:27:47;;;;;;;2.00;1.90;;;17.60;65.50;;;;;;5000694;28;20034;-27
2021/12/26 04:30:13;;;;;;;1.90;1.80;;;17.60;65.50;;;;;;5000956;28;20018;-27
2021/12/26 04:32:39;;;;;;;2.20;2.10;;;17.60;65.50;;;;;;5000803;28;20030;-27
2021/12/26 04:35:05;;;;;;;1.85;1.75;;;17.60;65.60;;;;;;5000871;28;20434;-27
2021/12/26 04:37:31;;;;;;;2.28;2.00;;;17.60;65.50;;;;;;4999715;28;20038;-27
2021/12/26 04:39:56;;;;;;;1.63;1.52;;;17.60;65.70;;;;;;5000833;28;20426;-27
2021/12/26 04:42:22;;;;;;;2.20;2.00;;;17.50;65.60;;;;;;5000596;28;20030;-27
2021/12/26 04:44:50;;;;;;;1.90;1.80;;;17.60;65.60;;;;;;5000802;28;20498;-27
2021/12/26 04:47:16;;;;;;;2.00;1.90;;;17.60;65.50;;;;;;5000284;28;20038;-27
2021/12/26 04:49:41;;;;;;;1.90;1.80;;;17.60;65.50;;;;;;5000563;28;20037;-27
2021/12/26 04:52:07;;;;;;;1.80;1.70;;;17.60;65.50;;;;;;5000511;28;20160;-27
2021/12/26 04:54:33;;;;;;;1.80;1.70;;;17.60;65.60;;;;;;5000485;28;20031;-27
2021/12/26 04:56:58;;;;;;;1.50;1.40;;;17.60;65.50;;;;;;5000111;28;20030;-28
2021/12/26 04:59:24;;;;;;;1.88;1.77;;;17.60;65.50;;;;;;5000439;28;20074;-27
2021/12/26 05:01:49;;;;;;;1.40;1.30;;;17.50;65.50;;;;;;5000347;28;20149;-27
2021/12/26 05:04:15;;;;;;;1.60;1.50;;;17.50;65.60;;;;;;4999110;28;20467;-27
2021/12/26 05:06:41;;;;;;;1.48;1.38;;;17.60;65.60;;;;;;5000061;28;20034;-27
2021/12/26 05:09:06;;;;;;;1.60;1.50;;;17.50;65.60;;;;;;5000348;28;20019;-27
2021/12/26 05:11:33;;;;;;;1.80;1.70;;;17.50;65.60;;;;;;4999892;28;20033;-27
2021/12/26 05:13:59;;;;;;;1.73;1.63;;;17.50;65.60;;;;;;5000197;28;20041;-27
2021/12/26 05:16:24;;;;;;;1.95;1.70;;;17.50;65.60;;;;;;5000004;28;20030;-27
2021/12/26 05:18:50;;;;;;;1.83;1.73;;;17.50;65.70;;;;;;4999963;28;20034;-27
2021/12/26 05:21:15;;;;;;;1.67;1.58;;;17.50;65.60;;;;;;4999975;28;20392;-27
2021/12/26 05:23:41;;;;;;;1.60;1.50;;;17.50;65.70;;;;;;5000019;28;20022;-27
2021/12/26 05:26:06;;;;;;;1.55;1.45;;;17.50;65.70;;;;;;4999958;28;20168;-27
2021/12/26 05:28:34;;;;;;;1.33;1.33;;;17.50;65.70;;;;;;4999800;28;20562;-27
2021/12/26 05:30:59;;;;;;;1.50;1.40;;;17.50;65.60;;;;;;4999367;28;20031;-27
2021/12/26 05:33:25;;;;;;;1.42;1.35;;;17.50;65.60;;;;;;4999773;28;20022;-27
2021/12/26 05:35:51;;;;;;;1.25;1.20;;;17.50;65.60;;;;;;4999685;28;20097;-27
2021/12/26 05:38:16;;;;;;;1.73;1.63;;;17.50;65.50;;;;;;4999393;28;20030;-27
2021/12/26 05:40:42;;;;;;;1.30;1.30;;;17.50;65.60;;;;;;4998740;28;20038;-27
2021/12/26 05:43:07;;;;;;;1.55;1.45;;;17.50;65.90;;;;;;4998796;28;20026;-27
2021/12/26 05:45:33;;;;;;;1.60;1.50;;;17.50;66.00;;;;;;4998753;28;20030;-27
2021/12/26 05:47:59;;;;;;;1.50;1.40;;;17.50;65.90;;;;;;4998888;28;20014;-27
2021/12/26 05:50:24;;;;;;;1.25;1.20;;;17.50;65.90;;;;;;4998963;28;20032;-27
2021/12/26 05:52:50;;;;;;;1.33;1.23;;;17.50;66.00;;;;;;4998278;28;20604;-27
2021/12/26 05:55:16;;;;;;;1.52;1.42;;;17.50;66.00;;;;;;4998998;28;21032;-27
2021/12/26 05:57:41;;;;;;;1.30;1.20;;;17.50;66.00;;;;;;4998434;28;20057;-27
2021/12/26 06:00:09;;;;;;;1.20;1.20;;;17.50;66.00;;;;;;4999209;28;20077;-27
2021/12/26 06:02:35;;;;;;;1.30;1.20;;;17.50;66.00;;;;;;4999036;28;20011;-27
2021/12/26 06:05:00;;;;;;;1.52;1.42;;;17.50;66.00;;;;;;4998833;28;20046;-27
2021/12/26 06:07:26;;;;;;;1.33;1.23;;;17.50;66.00;;;;;;4999025;28;20043;-27
2021/12/26 06:09:52;;;;;;;1.50;1.40;;;17.50;66.00;;;;;;4999229;28;20184;-27
2021/12/26 06:12:18;;;;;;;1.30;1.20;;;17.50;66.00;;;;;;4998007;28;20062;-27
2021/12/26 06:14:44;;;;;;;1.33;1.23;;;17.50;66.00;;;;;;4998974;28;20561;-27
2021/12/26 06:17:09;;;;;;;1.40;1.30;;;17.50;65.90;;;;;;4998925;28;20022;-27
2021/12/26 06:19:35;;;;;;;1.40;1.30;;;17.50;65.90;;;;;;4999135;28;20036;-27
2021/12/26 06:22:02;;;;;;;1.48;1.40;;;17.50;65.90;;;;;;4998825;28;20201;-27
2021/12/26 06:24:29;;;;;;;1.40;1.30;;;17.50;65.90;;;;;;4998565;28;20735;-27
2021/12/26 06:26:55;;;;;;;1.23;1.13;;;17.50;66.00;;;;;;4998475;28;20033;-27
2021/12/26 06:29:20;;;;;;;1.40;1.20;;;17.50;66.00;;;;;;4998782;28;20035;-27
2021/12/26 06:31:46;;;;;;;1.45;1.33;;;17.50;66.00;;;;;;4998659;28;20026;-27
2021/12/26 06:34:12;;;;;;;1.30;1.10;;;17.40;66.00;;;;;;4998643;28;20478;-27
2021/12/26 06:36:37;;;;;;;0.90;0.90;;;17.40;65.90;;;;;;4998542;28;20026;-27
2021/12/26 06:39:03;;;;;;;1.30;1.20;;;17.50;65.90;;;;;;4998531;28;20047;-27
2021/12/26 06:41:28;;;;;;;1.00;1.00;;;17.50;65.90;;;;;;4997398;28;20081;-27
2021/12/26 06:43:54;;;;;;;1.15;1.00;;;17.50;66.00;;;;;;4998520;28;20026;-27
2021/12/26 06:46:20;;;;;;;1.17;1.08;;;17.40;65.90;;;;;;4998608;28;20038;-27
2021/12/26 06:48:45;;;;;;;0.80;0.80;;;17.50;65.90;;;;;;5013515;28;20090;-27
2021/12/26 06:51:11;;;;;;;1.10;1.00;;;17.50;65.90;;;;;;4998305;28;20112;-27
2021/12/26 06:53:36;;;;;;;0.80;0.80;;;17.40;66.00;;;;;;4997802;28;20092;-27
2021/12/26 06:56:02;;;;;;;1.02;0.90;;;17.40;65.90;;;;;;4997538;28;20491;-27
2021/12/26 06:58:28;;;;;;;1.20;1.10;;;17.40;66.00;;;;;;4998109;28;20038;-27
2021/12/26 07:00:54;;;;;;;1.00;0.85;;;17.40;65.90;;;;;;4997374;28;20018;-27
2021/12/26 07:03:19;;;;;;;1.20;1.10;;;17.40;66.00;;;;;;4996519;28;20076;-27
2021/12/26 07:05:45;;;;;;;1.17;1.05;;;17.40;66.00;;;;;;4996882;28;20042;-27
2021/12/26 07:08:10;;;;;;;1.25;1.15;;;17.40;66.00;;;;;;4996517;28;20054;-27
2021/12/26 07:10:36;;;;;;;0.90;0.90;;;17.40;65.90;;;;;;4993140;28;20114;-27
2021/12/26 07:13:02;;;;;;;1.05;0.98;;;17.40;66.00;;;;;;4996979;28;20125;-27
2021/12/26 07:15:27;;;;;;;0.93;0.93;;;17.40;65.90;;;;;;4998105;28;20053;-26
2021/12/26 07:17:53;;;;;;;1.08;1.08;;;17.40;65.90;;;;;;4997889;28;20509;-27
2021/12/26 07:20:19;;;;;;;1.00;1.00;;;17.40;65.90;;;;;;4997858;28;20019;-27
2021/12/26 07:22:46;;;;;;;0.77;0.77;;;17.40;66.10;;;;;;4997358;28;20030;-27
2021/12/26 07:25:12;;;;;;;0.85;0.85;;;17.40;65.90;;;;;;4646855;28;10000389;-27
2021/12/26 07:27:37;;;;;;;0.90;0.90;;;17.40;65.70;;;;;;4985228;28;20467;-27
2021/12/26 07:30:04;;;;;;;1.20;1.10;;;17.40;65.70;;;;;;4985753;28;20100;-27
2021/12/26 07:32:30;;;;;;;2.30;1.00;;;17.40;65.60;;;;;;4992374;28;20077;-27
2021/12/26 07:34:57;;;;;;;2.28;1.10;;;17.50;65.90;;;;;;4990958;28;20066;-27
2021/12/26 07:37:23;;;;;;;1.40;0.95;;;17.40;66.00;;;;;;4995862;28;20061;-27
2021/12/26 07:39:49;;;;;;;0.90;0.90;;;17.40;65.90;;;;;;4992743;28;20042;-27
2021/12/26 07:42:14;;;;;;;2.85;1.10;;;17.40;66.10;;;;;;4988864;28;20058;-26
2021/12/26 07:44:40;;;;;;;0.90;0.88;;;17.50;66.20;;;;;;4992089;28;20633;-26
2021/12/26 07:47:06;;;;;;;0.95;0.93;;;17.40;65.80;;;;;;4992161;28;20104;-26
2021/12/26 07:49:31;;;;;;;0.82;0.82;;;17.40;66.00;;;;;;4993039;28;20035;-26
2021/12/26 07:51:58;;;;;;;0.85;0.85;;;17.40;66.10;;;;;;4992329;28;20499;-25
2021/12/26 07:54:24;;;;;;;0.82;0.82;;;17.50;66.10;;;;;;4990112;28;20054;-25
2021/12/26 07:56:51;;;;;;;0.90;0.90;;;17.50;66.10;;;;;;4991840;28;20046;-26
2021/12/26 07:59:16;;;;;;;0.65;0.65;;;17.50;66.00;;;;;;5017240;28;20054;-26
2021/12/26 08:01:42;;;;;;;0.80;0.80;;;17.40;65.80;;;;;;5010041;28;20109;-26
2021/12/26 08:04:09;;;;;;;0.90;0.90;;;17.40;66.00;;;;;;4993793;28;20042;-26
2021/12/26 08:06:35;;;;;;;1.27;0.77;;;17.40;66.00;;;;;;4993274;28;20057;-26
2021/12/26 08:09:00;;;;;;;0.98;0.70;;;17.40;65.90;;;;;;4988907;28;20042;-26
2021/12/26 08:11:26;;;;;;;1.42;0.90;;;17.40;66.00;;;;;;4990459;28;20066;-26
2021/12/26 08:13:52;;;;;;;0.93;0.93;;;17.40;65.90;;;;;;4986932;28;20043;-26
2021/12/26 08:16:18;;;;;;;0.90;0.90;;;17.40;65.90;;;;;;4986936;28;20081;-26
2021/12/26 08:18:44;;;;;;;1.77;0.75;;;17.40;65.90;;;;;;4990104;28;20046;-26
2021/12/26 08:21:09;;;;;;;0.93;0.93;;;17.40;65.80;;;;;;5003327;28;20093;-26
2021/12/26 08:23:35;;;;;;;1.08;1.00;;;17.40;65.80;;;;;;5000541;28;20608;-26
2021/12/26 08:26:00;;;;;;;0.75;0.70;;;17.40;65.80;;;;;;5005268;28;20046;-26
2021/12/26 08:28:26;;;;;;;0.70;0.70;;;17.40;65.80;;;;;;4989236;28;20050;-26
2021/12/26 08:30:52;;;;;;;0.77;0.70;;;17.40;65.80;;;;;;4991766;28;20061;-26
2021/12/26 08:33:17;;;;;;;1.52;1.00;;;17.40;65.70;;;;;;4990271;28;20133;-26
2021/12/26 08:35:44;;;;;;;0.75;0.75;;;17.40;65.70;;;;;;4990543;28;20054;-26
2021/12/26 08:38:10;;;;;;;0.50;0.50;;;17.40;65.70;;;;;;4989134;28;20330;-26
2021/12/26 08:40:36;;;;;;;0.70;0.70;;;17.40;65.70;;;;;;5007110;28;20054;-26
2021/12/26 08:43:01;;;;;;;0.60;0.60;;;17.50;65.70;;;;;;4989489;28;20125;-26
2021/12/26 08:45:27;;;;;;;0.73;0.73;;;17.50;65.60;;;;;;4991627;28;20062;-26
2021/12/26 08:47:55;;;;;;;0.60;0.60;;;17.50;65.70;;;;;;4991223;28;20050;-26
2021/12/26 08:50:21;;;;;;;0.70;0.70;;;17.40;65.70;;;;;;4990503;28;20077;-26
2021/12/26 08:52:46;;;;;;;0.80;0.60;;;17.40;65.70;;;;;;4991359;28;20054;-26
2021/12/26 08:55:12;;;;;;;1.42;0.75;;;17.40;65.70;;;;;;4990761;28;20542;-27
2021/12/26 08:57:38;;;;;;;3.67;0.70;;;17.40;65.70;;;;;;4990069;28;20100;-26
2021/12/26 09:00:05;;;;;;;0.55;0.50;;;17.50;65.50;;;;;;4989653;28;20038;-26
2021/12/26 09:02:31;;;;;;;1.02;0.75;;;17.40;65.50;;;;;;4989567;28;20531;-26
2021/12/26 09:04:56;;;;;;;0.52;0.52;;;17.40;65.60;;;;;;4993131;28;20062;-26
2021/12/26 09:07:22;;;;;;;0.60;0.50;;;17.50;65.60;;;;;;4994155;28;20050;-26
2021/12/26 09:09:48;;;;;;;1.02;0.70;;;17.40;65.50;;;;;;4993810;28;20051;-26
2021/12/26 09:12:13;;;;;;;0.40;0.40;;;17.50;65.50;;;;;;4992162;28;20042;-26
2021/12/26 09:14:39;;;;;;;0.85;0.77;;;17.40;65.50;;;;;;4994716;28;20130;-26
2021/12/26 09:17:05;;;;;;;0.80;0.80;;;17.40;65.50;;;;;;4990511;28;20391;-27
2021/12/26 09:19:32;;;;;;;0.60;0.50;;;17.50;65.50;;;;;;4981052;28;20058;-26
2021/12/26 09:21:58;;;;;;;1.58;1.15;;;17.40;65.40;;;;;;4995075;28;20034;-26
2021/12/26 09:24:24;;;;;;;0.60;0.60;;;17.50;65.50;;;;;;4997122;28;20058;-26
2021/12/26 09:26:50;;;;;;;0.93;0.77;;;17.50;66.30;;;;;;5014675;28;20041;-26
2021/12/26 09:29:15;;;;;;;1.15;0.75;;;17.40;65.40;;;;;;5006459;28;20042;-27
2021/12/26 09:31:41;;;;;;;0.95;0.75;;;17.50;65.40;;;;;;4998030;28;20046;-27
2021/12/26 09:34:06;;;;;;;0.43;0.40;;;17.50;65.10;;;;;;4993803;28;20133;-27
2021/12/26 09:36:32;;;;;;;0.40;0.40;;;17.50;65.10;;;;;;4997777;28;20049;-27
2021/12/26 09:38:58;;;;;;;0.70;0.70;;;17.60;65.00;;;;;;4997848;28;20039;-27
2021/12/26 09:41:24;;;;;;;0.52;0.52;;;17.60;64.90;;;;;;4997260;28;20399;-27
2021/12/26 09:43:49;;;;;;;0.40;0.40;;;17.60;65.00;;;;;;4996861;28;20038;-27
2021/12/26 09:46:15;;;;;;;0.60;0.50;;;17.60;65.10;;;;;;4995329;28;20094;-27
2021/12/26 09:48:41;;;;;;;0.57;0.57;;;17.60;65.10;;;;;;4997505;28;20042;-27
2021/12/26 09:51:06;;;;;;;0.68;0.60;;;17.50;65.00;;;;;;4996765;28;20047;-26
2021/12/26 09:53:38;;;;;;;0.65;0.65;;;17.60;65.10;;;;;;4994924;28;20034;-26
2021/12/26 09:56:04;;;;;;;0.70;0.50;;;17.50;65.10;;;;;;5012283;28;20038;-27
2021/12/26 09:58:30;;;;;;;0.60;0.40;;;17.50;65.20;;;;;;4995941;28;20052;-27
2021/12/26 10:00:55;;;;;;;0.30;0.30;;;17.50;65.10;;;;;;4995914;28;20109;-27
2021/12/26 10:03:30;;;;;;;0.60;0.50;;;17.50;64.90;;;;;;4996321;28;20046;-27
2021/12/26 10:06:17;;;;;;;0.55;0.50;;;17.50;65.10;;;;;;4996598;28;20046;-27
2021/12/26 10:08:56;;;;;;;1.05;0.80;;;17.50;65.10;;;;;;4995970;28;20085;-27
2021/12/26 10:11:25;;;;;;;1.02;0.60;;;17.50;65.10;;;;;;4996141;28;20573;-27
2021/12/26 10:13:53;;;;;;;2.28;0.73;;;17.50;65.00;;;;;;4996869;28;20044;-27
2021/12/26 10:16:24;;;;;;;0.50;0.50;;;17.60;65.00;;;;;;4991106;28;20042;-26
2021/12/26 10:18:49;;;;;;;0.60;0.60;;;17.60;65.00;;;;;;4996525;28;20042;-26
2021/12/26 10:21:21;;;;;;;0.50;0.50;;;17.60;64.90;;;;;;4996572;28;20072;-27
2021/12/26 10:23:47;;;;;;;0.73;0.60;;;17.50;65.10;;;;;;4992446;28;20129;-27
2021/12/26 10:26:26;;;;;;;3.88;0.70;;;17.50;65.20;;;;;;4993302;28;20128;-26
2021/12/26 10:29:11;;;;;;;1.00;0.98;;;17.50;65.40;;;;;;4995262;28;20046;-26
2021/12/26 10:31:41;;;;;;;12.05;7.60;;;17.40;65.30;;;;;;5000797;28;20039;-27
2021/12/26 10:34:12;;;;;;;8.63;6.80;;;17.40;65.20;;;;;;5010103;28;20042;-27
2021/12/26 10:36:42;;;;;;;16.30;12.05;;;17.50;65.10;;;;;;4995692;28;20562;-27
2021/12/26 10:39:09;;;;;;;15.75;11.52;;;17.40;65.10;;;;;;4995899;28;20434;-27
2021/12/26 10:41:47;;;;;;;31.90;17.20;;;17.50;65.10;;;;;;4995189;28;20057;-26
2021/12/26 10:44:24;;;;;;;32.45;18.15;;;17.40;65.10;;;;;;5009768;28;20050;-27
2021/12/26 10:46:51;;;;;;;25.92;14.55;;;17.40;65.20;;;;;;4996297;28;20050;-26
2021/12/26 10:49:21;;;;;;;14.40;10.32;;;17.50;65.10;;;;;;4994431;28;20113;-27
2021/12/26 10:51:47;;;;;;;16.00;10.73;;;17.40;65.00;;;;;;4996369;28;20487;-27
2021/12/26 10:54:17;;;;;;;18.52;9.85;;;17.40;65.10;;;;;;4995996;28;20072;-27
2021/12/26 10:57:04;;;;;;;20.42;13.95;;;17.40;65.20;;;;;;4995997;28;20057;-27
2021/12/26 10:59:29;;;;;;;22.50;13.20;;;17.40;65.20;;;;;;4992987;28;20125;-26
2021/12/26 11:01:56;;;;;;;23.60;13.98;;;17.40;65.30;;;;;;4996508;28;20042;-26
2021/12/26 11:04:23;;;;;;;24.95;15.35;;;17.40;65.20;;;;;;5010475;28;20096;-27
2021/12/26 11:07:04;;;;;;;30.17;16.88;;;17.40;65.90;;;;;;5010932;28;20089;-27
2021/12/26 11:09:29;;;;;;;25.20;16.17;;;17.40;65.10;;;;;;4994130;28;20050;-24
2021/12/26 11:12:06;;;;;;;30.27;18.63;;;17.40;65.00;;;;;;5005317;28;20042;-26
2021/12/26 11:14:32;;;;;;;31.05;18.85;;;17.40;65.20;;;;;;4997485;28;20049;-26
2021/12/26 11:16:57;;;;;;;23.00;15.15;;;17.40;65.10;;;;;;4995915;28;20046;-28
2021/12/26 11:19:42;;;;;;;24.98;16.10;;;17.40;65.10;;;;;;4994141;28;20155;-26
2021/12/26 11:22:09;;;;;;;25.48;16.30;;;17.40;65.10;;;;;;4996071;28;20475;-26
2021/12/26 11:24:34;;;;;;;22.10;15.43;;;17.40;65.00;;;;;;4994573;28;20097;-26
2021/12/26 11:27:02;;;;;;;25.42;16.60;;;17.40;65.10;;;;;;4992724;28;20140;-26
2021/12/26 11:29:28;;;;;;;25.90;16.35;;;17.40;65.00;;;;;;4994948;28;20050;-26
2021/12/26 11:31:54;;;;;;;27.50;16.52;;;17.40;65.00;;;;;;4991618;28;20078;-26
2021/12/26 11:34:20;;;;;;;24.17;14.90;;;17.40;65.10;;;;;;4993361;28;20073;-26
2021/12/26 11:36:46;;;;;;;29.08;16.60;;;17.40;65.00;;;;;;4995543;28;20054;-26
2021/12/26 11:39:12;;;;;;;26.30;15.50;;;17.50;65.00;;;;;;4993091;28;20465;-26
2021/12/26 11:42:00;;;;;;;21.23;14.07;;;17.50;65.10;;;;;;4994945;28;20057;-26
2021/12/26 11:45:00;;;;;;;25.85;15.68;;;17.50;65.00;;;;;;5002586;28;20060;-26
2021/12/26 11:47:51;;;;;;;23.85;14.05;;;17.50;65.00;;;;;;4994611;28;20391;-26
2021/12/26 11:50:41;;;;;;;22.13;14.23;;;17.50;65.10;;;;;;4993533;28;20134;-26
2021/12/26 11:53:15;;;;;;;26.00;16.05;;;17.50;65.20;;;;;;4995084;28;20105;-26
2021/12/26 11:56:02;;;;;;;25.15;15.98;;;17.50;65.10;;;;;;4994967;28;20042;-26
2021/12/26 11:58:53;;;;;;;23.25;14.68;;;17.50;65.10;;;;;;4994509;28;20050;-26
2021/12/26 12:01:19;;;;;;;21.52;14.27;;;17.50;65.00;;;;;;4993822;28;20038;-26
2021/12/26 12:03:45;;;;;;;23.80;15.15;;;17.50;64.80;;;;;;4995720;28;20101;-26
2021/12/26 12:06:25;;;;;;;23.40;14.35;;;17.50;65.00;;;;;;4994032;28;20388;-26
2021/12/26 12:08:51;;;;;;;19.80;13.05;;;17.50;64.90;;;;;;4994160;28;20054;-26
2021/12/26 12:11:17;;;;;;;18.00;12.90;;;17.50;64.90;;;;;;5025727;28;20050;-26
2021/12/26 12:13:50;;;;;;;19.23;12.80;;;17.50;64.90;;;;;;4993560;28;20046;-26
2021/12/26 12:16:24;;;;;;;17.23;12.50;;;17.60;65.00;;;;;;5010887;28;20072;-26
2021/12/26 12:18:53;;;;;;;16.60;12.02;;;17.60;64.90;;;;;;5007806;28;20042;-26
2021/12/26 12:21:44;;;;;;;17.30;12.00;;;17.60;64.90;;;;;;4996848;28;20078;-26
2021/12/26 12:24:15;;;;;;;17.75;12.75;;;17.60;65.70;;;;;;5010351;28;20042;-25
2021/12/26 12:26:56;;;;;;;19.50;12.45;;;17.60;64.90;;;;;;4994025;28;20050;-26
2021/12/26 12:29:21;;;;;;;18.30;12.13;;;17.60;64.90;;;;;;4993898;28;20105;-26
2021/12/26 12:31:47;;;;;;;17.05;11.80;;;17.60;64.90;;;;;;4990730;28;20054;-26
2021/12/26 12:34:13;;;;;;;19.65;11.73;;;17.60;64.70;;;;;;5003029;28;20046;-26
2021/12/26 12:36:41;;;;;;;17.77;11.93;;;17.60;64.80;;;;;;4993848;28;20052;-26
2021/12/26 12:39:12;;;;;;;15.43;10.57;;;17.60;64.80;;;;;;4995332;28;20498;-26
2021/12/26 12:41:43;;;;;;;16.27;11.73;;;17.60;64.80;;;;;;4997788;28;20042;-26
2021/12/26 12:44:32;;;;;;;16.95;10.90;;;17.60;64.70;;;;;;4999140;28;20034;-26
2021/12/26 12:47:05;;;;;;;15.02;10.27;;;17.70;64.70;;;;;;4992291;28;20133;-28